createdAt,value
2018-12-11T00:00:20.654Z,4.10
2018-12-11T00:02:52.825Z,2.50
2018-12-11T00:05:24.990Z,3.10
2018-12-11T00:07:57.234Z,3.17
2018-12-11T00:10:29.519Z,3.53
2018-12-11T00:13:01.680Z,3.43
2018-12-11T00:15:33.835Z,3.27
2018-12-11T00:18:06.047Z,3.10
2018-12-11T00:20:38.203Z,3.47
2018-12-11T00:23:10.359Z,3.67
2018-12-11T00:25:42.412Z,2.70
2018-12-11T00:28:14.603Z,3.50
2018-12-11T00:30:46.752Z,3.07
2018-12-11T00:33:19.545Z,3.07
2018-12-11T00:35:51.704Z,3.73
2018-12-11T00:38:23.854Z,3.70
2018-12-11T00:40:56.012Z,4.20
2018-12-11T00:43:28.448Z,3.87
2018-12-11T00:46:00.637Z,3.10
2018-12-11T00:48:32.966Z,3.77
2018-12-11T00:51:05.176Z,3.83
2018-12-11T00:53:37.363Z,3.40
2018-12-11T00:56:09.516Z,4.27
2018-12-11T00:58:41.694Z,3.47
2018-12-11T01:01:13.862Z,3.97
2018-12-11T01:03:46.025Z,5.93
2018-12-11T01:06:20.203Z,4.33
2018-12-11T01:08:52.957Z,4.97
2018-12-11T01:11:25.111Z,3.67
2018-12-11T01:13:57.283Z,4.87
2018-12-11T01:16:29.435Z,4.17
2018-12-11T01:19:01.592Z,2.97
2018-12-11T01:21:33.761Z,4.67
2018-12-11T01:24:05.952Z,3.23
2018-12-11T01:26:38.140Z,3.40
2018-12-11T01:29:10.309Z,3.93
2018-12-11T01:31:42.464Z,4.47
2018-12-11T01:34:14.649Z,5.63
2018-12-11T01:36:46.809Z,3.93
2018-12-11T01:39:18.964Z,4.03
2018-12-11T01:41:50.997Z,4.43
2018-12-11T01:44:23.144Z,3.67
2018-12-11T01:46:55.303Z,3.70
2018-12-11T01:49:27.460Z,5.03
2018-12-11T01:51:59.599Z,5.13
2018-12-11T01:54:31.661Z,5.00
2018-12-11T01:57:03.944Z,4.00
2018-12-11T01:59:36.121Z,4.20
2018-12-11T02:02:08.293Z,4.10
2018-12-11T02:04:40.479Z,3.77
2018-12-11T02:07:12.527Z,3.83
2018-12-11T02:09:44.689Z,4.37
2018-12-11T02:12:16.856Z,3.90
2018-12-11T02:14:49.069Z,5.27
2018-12-11T02:17:21.223Z,4.17
2018-12-11T02:19:53.275Z,4.40
2018-12-11T02:22:25.455Z,3.70
2018-12-11T02:24:57.636Z,3.77
2018-12-11T02:27:29.784Z,3.93
2018-12-11T02:30:01.945Z,4.13
2018-12-11T02:32:34.316Z,4.50
2018-12-11T02:35:06.489Z,6.40
2018-12-11T02:37:38.653Z,4.07
2018-12-11T02:40:10.821Z,3.40
2018-12-11T02:42:42.986Z,3.53
2018-12-11T02:45:15.064Z,3.40
2018-12-11T02:47:47.126Z,4.03
2018-12-11T02:50:19.338Z,4.17
2018-12-11T02:52:51.483Z,4.83
2018-12-11T02:55:23.659Z,4.00
2018-12-11T02:57:55.829Z,4.13
2018-12-11T03:00:27.897Z,3.70
2018-12-11T03:03:00.066Z,4.27
2018-12-11T03:05:32.270Z,4.53
2018-12-11T03:08:04.534Z,3.80
2018-12-11T03:10:36.807Z,4.17
2018-12-11T03:13:08.956Z,3.33
2018-12-11T03:15:41.018Z,3.87
2018-12-11T03:18:13.162Z,3.00
2018-12-11T03:20:45.322Z,4.17
2018-12-11T03:23:17.377Z,4.00
2018-12-11T03:25:49.540Z,3.97
2018-12-11T03:28:21.715Z,2.97
2018-12-11T03:30:53.875Z,2.90
2018-12-11T03:33:26.031Z,4.97
2018-12-11T03:35:58.204Z,3.83
2018-12-11T03:38:30.369Z,5.07
2018-12-11T03:41:02.550Z,3.80
2018-12-11T03:43:34.700Z,4.23
2018-12-11T03:46:06.861Z,3.37
2018-12-11T03:48:39.014Z,4.63
2018-12-11T03:51:11.180Z,3.27
2018-12-11T03:53:43.340Z,4.50
2018-12-11T03:56:15.389Z,3.93
2018-12-11T03:58:47.453Z,5.73
2018-12-11T04:01:19.629Z,4.27
2018-12-11T04:03:51.789Z,3.43
2018-12-11T04:06:23.955Z,4.33
2018-12-11T04:08:56.094Z,4.13
2018-12-11T04:11:28.267Z,4.23
2018-12-11T04:14:00.434Z,4.10
2018-12-11T04:16:39.121Z,4.07
2018-12-11T04:19:11.332Z,3.73
2018-12-11T04:21:43.510Z,3.17
2018-12-11T04:24:15.682Z,3.63
2018-12-11T04:26:47.743Z,3.17
2018-12-11T04:29:19.904Z,5.03
2018-12-11T04:31:51.980Z,3.80
2018-12-11T04:34:24.165Z,3.87
2018-12-11T04:36:56.340Z,4.23
2018-12-11T04:39:33.957Z,4.00
2018-12-11T04:42:02.709Z,3.20
2018-12-11T04:44:35.117Z,4.27
2018-12-11T04:47:07.300Z,3.10
2018-12-11T04:49:39.619Z,2.93
2018-12-11T04:52:13.712Z,3.43
2018-12-11T04:54:45.896Z,3.60
2018-12-11T04:57:18.377Z,3.03
2018-12-11T04:59:50.552Z,3.23
2018-12-11T05:02:22.701Z,3.40
2018-12-11T05:04:55.407Z,3.37
2018-12-11T05:07:27.568Z,3.47
2018-12-11T05:09:59.523Z,3.43
2018-12-11T05:12:31.719Z,3.47
2018-12-11T05:15:04.185Z,2.73
2018-12-11T05:17:36.576Z,3.20
2018-12-11T05:20:08.770Z,3.40
2018-12-11T05:22:40.936Z,2.77
2018-12-11T05:25:13.125Z,3.60
2018-12-11T05:27:45.230Z,3.30
2018-12-11T05:30:17.378Z,3.43
2018-12-11T05:32:49.549Z,3.10
2018-12-11T05:35:21.743Z,3.87
2018-12-11T05:37:53.900Z,3.93
2018-12-11T05:40:26.093Z,3.30
2018-12-11T05:42:58.180Z,3.83
2018-12-11T05:45:30.337Z,3.83
2018-12-11T05:48:02.522Z,3.17
2018-12-11T05:50:34.687Z,3.17
2018-12-11T05:53:06.863Z,2.70
2018-12-11T05:55:39.031Z,3.67
2018-12-11T05:58:11.207Z,2.97
2018-12-11T06:00:43.359Z,3.10
2018-12-11T06:03:15.526Z,2.70
2018-12-11T06:05:47.689Z,2.57
2018-12-11T06:08:19.862Z,3.70
2018-12-11T06:10:52.017Z,3.37
2018-12-11T06:13:24.175Z,2.40
2018-12-11T06:15:56.245Z,2.80
2018-12-11T06:18:28.432Z,3.40
2018-12-11T06:21:00.592Z,3.30
2018-12-11T06:23:32.796Z,3.03
2018-12-11T06:26:04.960Z,2.53
2018-12-11T06:28:37.158Z,3.33
2018-12-11T06:31:09.371Z,3.40
2018-12-11T06:33:41.455Z,2.63
2018-12-11T06:36:13.611Z,2.67
2018-12-11T06:38:45.775Z,2.30
2018-12-11T06:41:17.924Z,2.60
2018-12-11T06:43:49.924Z,4.17
2018-12-11T06:46:21.975Z,3.20
2018-12-11T06:48:54.061Z,2.20
2018-12-11T06:51:26.205Z,2.77
2018-12-11T06:53:58.379Z,2.70
2018-12-11T06:56:30.548Z,2.40
2018-12-11T06:59:02.618Z,2.07
2018-12-11T07:01:34.772Z,2.07
2018-12-11T07:04:06.934Z,2.73
2018-12-11T07:06:39.087Z,2.30
2018-12-11T07:09:11.264Z,3.63
2018-12-11T07:11:43.414Z,2.23
2018-12-11T07:14:15.603Z,2.83
2018-12-11T07:16:47.656Z,3.43
2018-12-11T07:19:19.835Z,2.13
2018-12-11T07:21:51.997Z,3.23
2018-12-11T07:24:24.177Z,2.27
2018-12-11T07:26:56.318Z,3.30
2018-12-11T07:29:28.505Z,2.07
2018-12-11T07:32:00.592Z,2.63
2018-12-11T07:34:32.777Z,2.03
2018-12-11T07:37:04.939Z,2.07
2018-12-11T07:39:37.122Z,3.17
2018-12-11T07:42:09.285Z,2.10
2018-12-11T07:44:41.436Z,1.93
2018-12-11T07:47:13.593Z,1.90
2018-12-11T07:49:45.573Z,2.13
2018-12-11T07:52:17.738Z,2.20
2018-12-11T07:54:49.907Z,1.97
2018-12-11T07:57:21.856Z,1.97
2018-12-11T07:59:54.016Z,2.10
2018-12-11T08:02:26.172Z,1.70
2018-12-11T08:04:58.361Z,2.07
2018-12-11T08:07:30.615Z,2.40
2018-12-11T08:10:02.899Z,2.07
2018-12-11T08:12:35.075Z,2.27
2018-12-11T08:15:07.340Z,2.67
2018-12-11T08:17:39.532Z,2.53
2018-12-11T08:20:11.710Z,2.50
2018-12-11T08:22:43.876Z,2.20
2018-12-11T08:25:16.051Z,2.10
2018-12-11T08:27:48.240Z,2.30
2018-12-11T08:30:20.424Z,2.17
2018-12-11T08:32:52.625Z,2.93
2018-12-11T08:35:24.704Z,2.10
2018-12-11T08:37:56.909Z,2.57
2018-12-11T08:40:29.079Z,2.27
2018-12-11T08:43:01.293Z,1.83
2018-12-11T08:45:33.459Z,2.03
2018-12-11T08:48:05.644Z,2.47
2018-12-11T08:50:37.825Z,2.77
2018-12-11T08:53:10.100Z,1.90
2018-12-11T08:55:42.277Z,2.43
2018-12-11T08:58:14.448Z,1.90
2018-12-11T09:00:46.622Z,2.13
2018-12-11T09:03:18.806Z,2.70
2018-12-11T09:05:50.992Z,2.40
2018-12-11T09:08:23.180Z,2.23
2018-12-11T09:10:55.220Z,2.30
2018-12-11T09:13:27.292Z,2.20
2018-12-11T09:15:59.672Z,2.10
2018-12-11T09:18:31.824Z,1.90
2018-12-11T09:21:04.004Z,2.00
2018-12-11T09:23:36.092Z,1.83
2018-12-11T09:26:08.272Z,2.63
2018-12-11T09:28:40.451Z,1.73
2018-12-11T09:31:12.676Z,2.77
2018-12-11T09:33:44.645Z,2.07
2018-12-11T09:36:16.818Z,2.63
2018-12-11T09:38:49.006Z,1.73
2018-12-11T09:41:21.196Z,2.80
2018-12-11T09:43:53.388Z,2.07
2018-12-11T09:46:25.468Z,3.10
2018-12-11T09:48:57.628Z,2.13
2018-12-11T09:51:29.797Z,2.07
2018-12-11T09:54:01.970Z,7.17
2018-12-11T09:56:34.141Z,5.17
2018-12-11T09:59:06.318Z,4.07
2018-12-11T10:01:38.384Z,2.47
2018-12-11T10:04:10.560Z,2.70
2018-12-11T10:06:42.740Z,2.30
2018-12-11T10:09:14.801Z,2.30
2018-12-11T10:11:50.880Z,1.90
2018-12-11T10:14:23.105Z,1.67
2018-12-11T10:16:55.168Z,2.00
2018-12-11T10:19:27.328Z,2.00
2018-12-11T10:21:59.497Z,2.63
2018-12-11T10:24:31.688Z,2.73
2018-12-11T10:27:03.855Z,2.13
2018-12-11T10:29:36.036Z,2.50
2018-12-11T10:32:08.187Z,2.27
2018-12-11T10:34:40.273Z,2.17
2018-12-11T10:37:12.433Z,2.00
2018-12-11T10:39:44.609Z,1.90
2018-12-11T10:42:16.756Z,2.40
2018-12-11T10:44:48.935Z,3.57
2018-12-11T10:47:22.055Z,2.93
2018-12-11T10:49:54.500Z,2.53
2018-12-11T10:52:26.667Z,2.23
2018-12-11T10:54:58.829Z,2.17
2018-12-11T10:57:30.994Z,3.63
2018-12-11T11:00:04.302Z,2.93
2018-12-11T11:02:41.119Z,2.10
2018-12-11T11:05:13.272Z,2.13
2018-12-11T11:07:45.757Z,2.40
2018-12-11T11:10:17.834Z,1.93
2018-12-11T11:12:50.140Z,2.00
2018-12-11T11:15:22.300Z,2.00
2018-12-11T11:17:54.465Z,2.00
2018-12-11T11:20:26.649Z,2.33
2018-12-11T11:22:58.788Z,2.50
2018-12-11T11:25:30.977Z,2.13
2018-12-11T11:28:03.120Z,3.57
2018-12-11T11:30:35.356Z,3.47
2018-12-11T11:33:07.512Z,3.87
2018-12-11T11:35:39.665Z,3.03
2018-12-11T11:38:11.803Z,1.67
2018-12-11T11:40:43.969Z,2.30
2018-12-11T11:43:16.103Z,3.30
2018-12-11T11:45:48.248Z,1.90
2018-12-11T11:48:20.415Z,1.77
2018-12-11T11:50:52.580Z,1.93
2018-12-11T11:53:25.016Z,2.73
2018-12-11T11:55:57.195Z,2.00
2018-12-11T11:58:29.340Z,3.17
2018-12-11T12:01:01.759Z,2.70
2018-12-11T12:03:33.912Z,2.53
2018-12-11T12:06:06.091Z,2.50
2018-12-11T12:08:38.258Z,2.23
2018-12-11T12:11:10.416Z,2.23
2018-12-11T12:13:42.374Z,2.07
2018-12-11T12:16:14.518Z,2.27
2018-12-11T12:18:46.575Z,2.00
2018-12-11T12:21:18.754Z,2.47
2018-12-11T12:23:50.945Z,2.30
2018-12-11T12:26:23.099Z,2.27
2018-12-11T12:28:55.253Z,2.27
2018-12-11T12:31:27.846Z,2.20
2018-12-11T12:34:00.212Z,1.70
2018-12-11T12:36:32.389Z,2.13
2018-12-11T12:39:06.820Z,2.30
2018-12-11T12:41:38.955Z,2.07
2018-12-11T12:44:11.107Z,2.83
2018-12-11T12:46:43.265Z,2.47
2018-12-11T12:49:15.443Z,2.20
2018-12-11T12:51:47.612Z,2.77
2018-12-11T12:54:19.767Z,1.90
2018-12-11T12:56:51.924Z,1.57
2018-12-11T12:59:24.077Z,2.50
2018-12-11T13:01:56.172Z,3.87
2018-12-11T13:04:28.336Z,2.20
2018-12-11T13:07:00.538Z,2.67
2018-12-11T13:09:32.596Z,2.23
2018-12-11T13:12:04.964Z,2.17
2018-12-11T13:14:37.167Z,2.30
2018-12-11T13:17:09.341Z,1.83
2018-12-11T13:19:41.488Z,2.73
2018-12-11T13:22:13.687Z,2.57
2018-12-11T13:24:45.840Z,2.83
2018-12-11T13:27:18.035Z,2.20
2018-12-11T13:29:50.192Z,1.97
2018-12-11T13:32:22.352Z,2.50
2018-12-11T13:34:54.531Z,2.60
2018-12-11T13:37:26.825Z,2.00
2018-12-11T13:39:58.965Z,2.63
2018-12-11T13:42:31.125Z,1.80
2018-12-11T13:45:03.770Z,2.43
2018-12-11T13:47:35.907Z,2.40
2018-12-11T13:50:08.122Z,2.50
2018-12-11T13:52:40.280Z,2.57
2018-12-11T13:55:12.428Z,2.97
2018-12-11T13:57:44.597Z,2.40
2018-12-11T14:00:16.753Z,2.00
2018-12-11T14:02:48.940Z,1.90
2018-12-11T14:05:21.107Z,2.37
2018-12-11T14:07:53.284Z,2.33
2018-12-11T14:10:25.442Z,2.40
2018-12-11T14:12:57.499Z,2.80
2018-12-11T14:15:29.456Z,3.37
2018-12-11T14:18:01.645Z,2.80
2018-12-11T14:20:33.816Z,4.57
2018-12-11T14:23:06.000Z,3.70
2018-12-11T14:25:38.210Z,4.77
2018-12-11T14:28:10.392Z,7.47
2018-12-11T14:30:42.547Z,5.00
2018-12-11T14:33:14.703Z,5.20
2018-12-11T14:35:46.905Z,2.87
2018-12-11T14:38:18.964Z,3.47
2018-12-11T14:40:51.153Z,3.87
2018-12-11T14:43:23.327Z,3.33
2018-12-11T14:45:55.613Z,3.30
2018-12-11T14:48:27.778Z,3.80
2018-12-11T14:50:59.947Z,2.97
2018-12-11T14:53:32.100Z,3.67
2018-12-11T14:56:04.265Z,3.50
2018-12-11T14:58:36.447Z,2.97
2018-12-11T15:01:08.655Z,2.53
2018-12-11T15:03:40.839Z,2.40
2018-12-11T15:06:12.990Z,2.30
2018-12-11T15:08:45.053Z,2.37
2018-12-11T15:11:17.117Z,2.30
2018-12-11T15:13:49.305Z,2.67
2018-12-11T15:16:21.879Z,2.23
2018-12-11T15:18:54.111Z,2.83
2018-12-11T15:21:26.236Z,2.17
2018-12-11T15:23:58.482Z,1.57
2018-12-11T15:26:31.065Z,2.00
2018-12-11T15:29:03.332Z,2.27
2018-12-11T15:31:35.413Z,2.27
2018-12-11T15:34:07.568Z,2.27
2018-12-11T15:36:39.619Z,2.30
2018-12-11T15:39:11.802Z,2.07
2018-12-11T15:41:43.980Z,2.47
2018-12-11T15:44:16.153Z,2.63
2018-12-11T15:46:48.419Z,2.30
2018-12-11T15:49:20.594Z,2.63
2018-12-11T15:51:52.882Z,3.43
2018-12-11T15:54:25.178Z,2.83
2018-12-11T15:56:57.659Z,2.50
2018-12-11T15:59:29.980Z,2.97
2018-12-11T16:02:02.255Z,5.27
2018-12-11T16:04:34.445Z,3.10
2018-12-11T16:07:06.636Z,3.27
2018-12-11T16:09:38.857Z,2.60
2018-12-11T16:12:11.074Z,3.17
2018-12-11T16:14:43.242Z,4.67
2018-12-11T16:17:15.443Z,4.90
2018-12-11T16:19:47.596Z,3.30
2018-12-11T16:22:19.883Z,2.57
2018-12-11T16:24:52.536Z,3.37
2018-12-11T16:27:25.234Z,3.07
2018-12-11T16:29:57.436Z,2.83
2018-12-11T16:32:29.597Z,3.30
2018-12-11T16:35:01.865Z,3.10
2018-12-11T16:37:34.253Z,2.93
2018-12-11T16:40:06.489Z,2.97
2018-12-11T16:42:38.652Z,2.83
2018-12-11T16:45:10.791Z,2.67
2018-12-11T16:47:42.949Z,4.00
2018-12-11T16:50:15.135Z,3.70
2018-12-11T16:52:47.334Z,4.20
2018-12-11T16:55:19.505Z,2.73
2018-12-11T16:57:51.736Z,2.57
2018-12-11T17:00:23.924Z,2.60
2018-12-11T17:02:56.004Z,4.43
2018-12-11T17:05:28.188Z,3.70
2018-12-11T17:08:00.391Z,2.53
2018-12-11T17:10:32.614Z,3.10
2018-12-11T17:13:04.804Z,3.73
2018-12-11T17:15:38.257Z,4.27
2018-12-11T17:18:10.771Z,3.57
2018-12-11T17:20:43.436Z,4.70
2018-12-11T17:23:15.793Z,4.37
2018-12-11T17:25:47.967Z,5.23
2018-12-11T17:28:20.128Z,4.87
2018-12-11T17:30:52.317Z,5.33
2018-12-11T17:33:24.480Z,3.97
2018-12-11T17:35:56.427Z,5.27
2018-12-11T17:38:28.491Z,6.20
2018-12-11T17:41:00.661Z,9.40
2018-12-11T17:43:32.810Z,7.73
2018-12-11T17:46:04.964Z,5.87
2018-12-11T17:48:41.536Z,6.33
2018-12-11T17:51:11.666Z,8.13
2018-12-11T17:53:44.052Z,7.93
2018-12-11T17:56:16.233Z,5.83
2018-12-11T17:58:48.389Z,4.97
2018-12-11T18:01:21.978Z,5.83
2018-12-11T18:03:54.147Z,6.33
2018-12-11T18:06:26.372Z,9.40
2018-12-11T18:08:58.513Z,6.87
2018-12-11T18:11:30.726Z,6.83
2018-12-11T18:14:03.065Z,5.90
2018-12-11T18:16:35.220Z,5.30
2018-12-11T18:19:07.416Z,5.50
2018-12-11T18:21:39.677Z,4.23
2018-12-11T18:24:11.847Z,4.67
2018-12-11T18:26:44.025Z,4.47
2018-12-11T18:29:16.184Z,3.57
2018-12-11T18:31:48.850Z,3.00
2018-12-11T18:34:21.013Z,3.70
2018-12-11T18:36:53.432Z,4.17
2018-12-11T18:39:26.245Z,4.43
2018-12-11T18:41:58.689Z,3.93
2018-12-11T18:44:31.145Z,4.00
2018-12-11T18:47:03.375Z,2.63
2018-12-11T18:49:35.350Z,3.50
2018-12-11T18:52:07.563Z,3.80
2018-12-11T18:54:39.780Z,3.43
2018-12-11T18:57:11.912Z,4.00
2018-12-11T18:59:43.997Z,4.70
2018-12-11T19:02:16.249Z,3.33
2018-12-11T19:04:48.419Z,3.73
2018-12-11T19:07:21.200Z,4.87
2018-12-11T19:09:53.410Z,7.83
2018-12-11T19:12:25.654Z,5.43
2018-12-11T19:14:57.968Z,4.70
2018-12-11T19:17:30.193Z,5.73
2018-12-11T19:20:03.093Z,6.37
2018-12-11T19:22:35.073Z,6.57
2018-12-11T19:25:10.316Z,6.03
2018-12-11T19:27:42.489Z,6.23
2018-12-11T19:30:14.648Z,7.87
2018-12-11T19:32:46.884Z,7.47
2018-12-11T19:35:19.232Z,7.60
2018-12-11T19:37:51.379Z,9.47
2018-12-11T19:40:23.612Z,13.17
2018-12-11T19:42:56.138Z,11.80
2018-12-11T19:45:28.436Z,13.43
2018-12-11T19:48:00.579Z,14.90
2018-12-11T19:50:32.696Z,13.97
2018-12-11T19:53:04.800Z,12.60
2018-12-11T19:55:36.958Z,12.40
2018-12-11T19:58:09.043Z,12.33
2018-12-11T20:00:41.216Z,10.60
2018-12-11T20:03:13.456Z,10.67
2018-12-11T20:05:45.703Z,9.07
2018-12-11T20:08:17.879Z,8.30
2018-12-11T20:10:53.203Z,8.27
2018-12-11T20:13:25.455Z,7.70
2018-12-11T20:15:57.620Z,6.03
2018-12-11T20:18:29.889Z,4.57
2018-12-11T20:21:02.093Z,4.43
2018-12-11T20:23:34.227Z,3.53
2018-12-11T20:26:06.517Z,2.57
2018-12-11T20:28:38.796Z,2.60
2018-12-11T20:31:10.965Z,2.03
2018-12-11T20:33:43.101Z,2.67
2018-12-11T20:36:15.327Z,4.30
2018-12-11T20:38:47.417Z,5.23
2018-12-11T20:41:19.573Z,4.83
2018-12-11T20:43:51.726Z,4.57
2018-12-11T20:46:23.793Z,3.77
2018-12-11T20:48:55.937Z,4.10
2018-12-11T20:51:28.105Z,4.03
2018-12-11T20:54:00.229Z,4.73
2018-12-11T20:56:32.787Z,4.43
2018-12-11T20:59:04.983Z,3.73
2018-12-11T21:01:37.016Z,4.10
2018-12-11T21:04:09.189Z,3.30
2018-12-11T21:06:41.394Z,4.27
2018-12-11T21:09:15.748Z,3.93
2018-12-11T21:11:47.881Z,5.20
2018-12-11T21:14:20.165Z,7.60
2018-12-11T21:16:52.337Z,7.57
2018-12-11T21:19:24.414Z,5.93
2018-12-11T21:21:56.646Z,7.60
2018-12-11T21:24:28.833Z,8.03
2018-12-11T21:27:01.138Z,7.13
2018-12-11T21:29:33.488Z,6.80
2018-12-11T21:32:05.759Z,6.63
2018-12-11T21:34:37.958Z,6.37
2018-12-11T21:37:10.209Z,5.10
2018-12-11T21:39:42.384Z,5.50
2018-12-11T21:42:14.707Z,5.70
2018-12-11T21:44:46.764Z,5.73
2018-12-11T21:47:18.872Z,5.77
2018-12-11T21:49:51.041Z,6.00
2018-12-11T21:52:23.244Z,5.50
2018-12-11T21:54:55.395Z,5.63
2018-12-11T21:57:27.604Z,6.23
2018-12-11T21:59:59.769Z,6.57
2018-12-11T22:02:32.053Z,6.17
2018-12-11T22:05:04.649Z,6.63
2018-12-11T22:07:36.828Z,6.47
2018-12-11T22:10:08.997Z,6.67
2018-12-11T22:12:41.288Z,6.37
2018-12-11T22:15:13.453Z,6.90
2018-12-11T22:17:45.639Z,6.20
2018-12-11T22:20:17.811Z,6.13
2018-12-11T22:22:50.003Z,6.50
2018-12-11T22:25:22.162Z,7.37
2018-12-11T22:27:54.341Z,6.33
2018-12-11T22:30:26.494Z,7.80
2018-12-11T22:32:58.772Z,7.07
2018-12-11T22:35:30.961Z,6.60
2018-12-11T22:38:03.172Z,6.63
2018-12-11T22:40:35.449Z,6.97
2018-12-11T22:43:07.636Z,6.73
2018-12-11T22:45:39.810Z,6.53
2018-12-11T22:48:12.017Z,8.43
2018-12-11T22:50:44.181Z,6.97
2018-12-11T22:53:16.261Z,7.00
2018-12-11T22:55:48.335Z,8.13
2018-12-11T22:58:20.532Z,7.80
2018-12-11T23:00:52.930Z,6.10
2018-12-11T23:03:25.107Z,7.67
2018-12-11T23:05:57.288Z,5.87
2018-12-11T23:08:29.475Z,7.00
2018-12-11T23:11:01.668Z,6.07
2018-12-11T23:13:34.653Z,6.33
2018-12-11T23:16:06.830Z,6.80
2018-12-11T23:18:39.003Z,5.73
2018-12-11T23:21:11.152Z,6.23
2018-12-11T23:23:43.528Z,5.90
2018-12-11T23:26:15.673Z,5.77
2018-12-11T23:28:47.826Z,6.37
2018-12-11T23:31:19.977Z,5.70
2018-12-11T23:33:52.139Z,5.43
2018-12-11T23:36:24.330Z,5.80
2018-12-11T23:38:56.493Z,4.87
2018-12-11T23:41:28.650Z,5.30
2018-12-11T23:44:00.794Z,6.63
2018-12-11T23:46:32.938Z,5.50
2018-12-11T23:49:05.088Z,6.20
2018-12-11T23:51:37.237Z,5.97
2018-12-11T23:54:09.405Z,5.80
2018-12-11T23:56:41.585Z,5.60
2018-12-11T23:59:13.731Z,5.83
